sensor_id;sensor_type;location;lat;lon;timestamp;P1;durP1;ratioP1;P2;durP2;ratioP2
34242;SDS011;20504;43.214;27.920;2024-03-02T00:02:14;33.83;;;10.37;;
34242;SDS011;20504;43.214;27.920;2024-03-02T00:04:39;29.60;;;10.33;;
34242;SDS011;20504;43.214;27.920;2024-03-02T00:07:06;29.33;;;9.27;;
34242;SDS011;20504;43.214;27.920;2024-03-02T00:09:32;30.67;;;9.73;;
34242;SDS011;20504;43.214;27.920;2024-03-02T00:11:58;30.93;;;10.53;;
34242;SDS011;20504;43.214;27.920;2024-03-02T00:14:24;33.58;;;11.45;;
34242;SDS011;20504;43.214;27.920;2024-03-02T00:16:50;26.17;;;9.23;;
34242;SDS011;20504;43.214;27.920;2024-03-02T00:19:17;28.77;;;10.70;;
34242;SDS011;20504;43.214;27.920;2024-03-02T00:21:42;27.43;;;9.80;;
34242;SDS011;20504;43.214;27.920;2024-03-02T00:24:18;29.00;;;9.13;;
34242;SDS011;20504;43.214;27.920;2024-03-02T00:26:46;27.50;;;8.95;;
34242;SDS011;20504;43.214;27.920;2024-03-02T00:29:11;31.67;;;10.50;;
34242;SDS011;20504;43.214;27.920;2024-03-02T00:31:39;30.38;;;9.07;;
34242;SDS011;20504;43.214;27.920;2024-03-02T00:34:04;28.23;;;8.70;;
34242;SDS011;20504;43.214;27.920;2024-03-02T00:36:31;27.05;;;9.95;;
34242;SDS011;20504;43.214;27.920;2024-03-02T00:38:56;31.03;;;9.47;;
34242;SDS011;20504;43.214;27.920;2024-03-02T00:41:28;31.63;;;9.77;;
34242;SDS011;20504;43.214;27.920;2024-03-02T00:46:26;30.85;;;10.13;;
34242;SDS011;20504;43.214;27.920;2024-03-02T00:48:56;35.28;;;9.90;;
34242;SDS011;20504;43.214;27.920;2024-03-02T00:51:22;20.98;;;8.70;;
34242;SDS011;20504;43.214;27.920;2024-03-02T00:53:48;32.28;;;9.80;;
34242;SDS011;20504;43.214;27.920;2024-03-02T00:56:14;30.60;;;9.50;;
34242;SDS011;20504;43.214;27.920;2024-03-02T00:58:41;25.87;;;9.77;;
34242;SDS011;20504;43.214;27.920;2024-03-02T01:01:07;33.95;;;9.57;;
34242;SDS011;20504;43.214;27.920;2024-03-02T01:03:33;29.97;;;10.33;;
34242;SDS011;20504;43.214;27.920;2024-03-02T01:05:58;35.37;;;10.80;;
34242;SDS011;20504;43.214;27.920;2024-03-02T01:08:24;27.17;;;9.07;;
34242;SDS011;20504;43.214;27.920;2024-03-02T01:10:49;33.60;;;9.57;;
34242;SDS011;20504;43.214;27.920;2024-03-02T01:13:14;29.33;;;10.00;;
34242;SDS011;20504;43.214;27.920;2024-03-02T01:15:40;30.93;;;10.90;;
34242;SDS011;20504;43.214;27.920;2024-03-02T01:18:06;36.45;;;11.07;;
34242;SDS011;20504;43.214;27.920;2024-03-02T01:20:32;20.30;;;7.27;;
34242;SDS011;20504;43.214;27.920;2024-03-02T01:22:58;19.20;;;7.33;;
34242;SDS011;20504;43.214;27.920;2024-03-02T01:25:26;30.45;;;11.88;;
34242;SDS011;20504;43.214;27.920;2024-03-02T01:27:52;24.43;;;10.23;;
34242;SDS011;20504;43.214;27.920;2024-03-02T01:30:17;29.77;;;10.40;;
34242;SDS011;20504;43.214;27.920;2024-03-02T01:32:44;32.63;;;10.50;;
34242;SDS011;20504;43.214;27.920;2024-03-02T01:35:10;34.67;;;10.70;;
34242;SDS011;20504;43.214;27.920;2024-03-02T01:37:36;28.80;;;10.00;;
34242;SDS011;20504;43.214;27.920;2024-03-02T01:40:01;40.72;;;11.18;;
34242;SDS011;20504;43.214;27.920;2024-03-02T01:42:34;29.35;;;9.95;;
34242;SDS011;20504;43.214;27.920;2024-03-02T01:45:00;29.40;;;11.25;;
34242;SDS011;20504;43.214;27.920;2024-03-02T01:47:25;36.90;;;11.43;;
34242;SDS011;20504;43.214;27.920;2024-03-02T01:49:51;34.83;;;11.70;;
34242;SDS011;20504;43.214;27.920;2024-03-02T01:52:16;29.13;;;10.17;;
34242;SDS011;20504;43.214;27.920;2024-03-02T01:54:43;30.33;;;9.97;;
34242;SDS011;20504;43.214;27.920;2024-03-02T01:57:11;29.52;;;10.25;;
34242;SDS011;20504;43.214;27.920;2024-03-02T01:59:38;36.03;;;12.02;;
34242;SDS011;20504;43.214;27.920;2024-03-02T02:02:03;35.43;;;11.90;;
34242;SDS011;20504;43.214;27.920;2024-03-02T02:04:28;36.70;;;10.83;;
34242;SDS011;20504;43.214;27.920;2024-03-02T02:06:54;41.50;;;12.13;;
34242;SDS011;20504;43.214;27.920;2024-03-02T02:09:20;28.50;;;9.93;;
34242;SDS011;20504;43.214;27.920;2024-03-02T02:14:11;31.37;;;10.43;;
34242;SDS011;20504;43.214;27.920;2024-03-02T02:16:36;30.07;;;12.03;;
34242;SDS011;20504;43.214;27.920;2024-03-02T02:19:02;34.13;;;11.47;;
34242;SDS011;20504;43.214;27.920;2024-03-02T02:21:28;25.77;;;11.43;;
34242;SDS011;20504;43.214;27.920;2024-03-02T02:23:53;31.63;;;11.63;;
34242;SDS011;20504;43.214;27.920;2024-03-02T02:26:18;18.03;;;8.30;;
34242;SDS011;20504;43.214;27.920;2024-03-02T02:28:44;32.37;;;10.83;;
34242;SDS011;20504;43.214;27.920;2024-03-02T02:31:13;33.70;;;11.25;;
34242;SDS011;20504;43.214;27.920;2024-03-02T02:33:39;25.37;;;8.97;;
34242;SDS011;20504;43.214;27.920;2024-03-02T02:36:05;35.00;;;10.88;;
34242;SDS011;20504;43.214;27.920;2024-03-02T02:38:30;31.17;;;11.03;;
34242;SDS011;20504;43.214;27.920;2024-03-02T02:40:56;24.07;;;12.10;;
34242;SDS011;20504;43.214;27.920;2024-03-02T02:43:21;38.47;;;12.03;;
34242;SDS011;20504;43.214;27.920;2024-03-02T02:45:46;32.43;;;11.40;;
34242;SDS011;20504;43.214;27.920;2024-03-02T02:48:11;35.23;;;11.63;;
34242;SDS011;20504;43.214;27.920;2024-03-02T02:50:37;18.93;;;7.93;;
34242;SDS011;20504;43.214;27.920;2024-03-02T02:53:02;26.93;;;10.57;;
34242;SDS011;20504;43.214;27.920;2024-03-02T02:57:54;30.90;;;10.30;;
34242;SDS011;20504;43.214;27.920;2024-03-02T03:00:19;33.47;;;11.47;;
34242;SDS011;20504;43.214;27.920;2024-03-02T03:02:46;28.53;;;10.87;;
34242;SDS011;20504;43.214;27.920;2024-03-02T03:07:37;28.10;;;10.97;;
34242;SDS011;20504;43.214;27.920;2024-03-02T03:10:04;32.13;;;11.05;;
34242;SDS011;20504;43.214;27.920;2024-03-02T03:12:31;32.95;;;10.93;;
34242;SDS011;20504;43.214;27.920;2024-03-02T03:14:57;35.67;;;11.60;;
34242;SDS011;20504;43.214;27.920;2024-03-02T03:19:49;29.30;;;9.70;;
34242;SDS011;20504;43.214;27.920;2024-03-02T03:22:14;27.10;;;10.83;;
34242;SDS011;20504;43.214;27.920;2024-03-02T03:24:39;30.67;;;11.33;;
34242;SDS011;20504;43.214;27.920;2024-03-02T03:27:05;35.10;;;10.83;;
34242;SDS011;20504;43.214;27.920;2024-03-02T03:29:30;35.90;;;11.70;;
34242;SDS011;20504;43.214;27.920;2024-03-02T03:31:57;28.40;;;11.25;;
34242;SDS011;20504;43.214;27.920;2024-03-02T03:34:22;34.27;;;11.37;;
34242;SDS011;20504;43.214;27.920;2024-03-02T03:36:47;33.30;;;12.23;;
34242;SDS011;20504;43.214;27.920;2024-03-02T03:39:12;30.60;;;11.67;;
34242;SDS011;20504;43.214;27.920;2024-03-02T03:41:38;30.90;;;11.80;;
34242;SDS011;20504;43.214;27.920;2024-03-02T03:44:03;26.30;;;7.80;;
34242;SDS011;20504;43.214;27.920;2024-03-02T03:46:28;28.50;;;10.90;;
34242;SDS011;20504;43.214;27.920;2024-03-02T03:48:54;29.60;;;10.77;;
34242;SDS011;20504;43.214;27.920;2024-03-02T03:51:21;23.25;;;10.35;;
34242;SDS011;20504;43.214;27.920;2024-03-02T03:53:47;27.05;;;11.40;;
34242;SDS011;20504;43.214;27.920;2024-03-02T03:56:13;32.07;;;11.00;;
34242;SDS011;20504;43.214;27.920;2024-03-02T03:58:40;31.50;;;10.80;;
34242;SDS011;20504;43.214;27.920;2024-03-02T04:01:06;27.73;;;10.47;;
34242;SDS011;20504;43.214;27.920;2024-03-02T04:03:33;22.90;;;10.25;;
34242;SDS011;20504;43.214;27.920;2024-03-02T04:05:58;26.20;;;11.73;;
34242;SDS011;20504;43.214;27.920;2024-03-02T04:08:23;38.43;;;13.93;;
34242;SDS011;20504;43.214;27.920;2024-03-02T04:10:49;27.27;;;10.53;;
34242;SDS011;20504;43.214;27.920;2024-03-02T04:13:14;27.27;;;11.73;;
34242;SDS011;20504;43.214;27.920;2024-03-02T04:15:39;30.20;;;11.30;;
34242;SDS011;20504;43.214;27.920;2024-03-02T04:18:05;23.73;;;11.27;;
34242;SDS011;20504;43.214;27.920;2024-03-02T04:20:31;25.53;;;9.97;;
34242;SDS011;20504;43.214;27.920;2024-03-02T04:22:56;31.63;;;10.40;;
34242;SDS011;20504;43.214;27.920;2024-03-02T04:25:22;27.00;;;11.13;;
34242;SDS011;20504;43.214;27.920;2024-03-02T04:27:51;20.92;;;9.70;;
34242;SDS011;20504;43.214;27.920;2024-03-02T04:30:16;33.37;;;9.70;;
34242;SDS011;20504;43.214;27.920;2024-03-02T04:32:42;28.23;;;10.23;;
34242;SDS011;20504;43.214;27.920;2024-03-02T04:35:11;33.28;;;10.32;;
34242;SDS011;20504;43.214;27.920;2024-03-02T04:37:36;25.27;;;10.77;;
34242;SDS011;20504;43.214;27.920;2024-03-02T04:40:01;27.63;;;10.63;;
34242;SDS011;20504;43.214;27.920;2024-03-02T04:42:27;28.73;;;10.70;;
34242;SDS011;20504;43.214;27.920;2024-03-02T04:44:52;33.77;;;10.23;;
34242;SDS011;20504;43.214;27.920;2024-03-02T04:47:18;23.73;;;9.02;;
34242;SDS011;20504;43.214;27.920;2024-03-02T04:49:44;26.60;;;10.07;;
34242;SDS011;20504;43.214;27.920;2024-03-02T04:52:09;25.57;;;10.57;;
34242;SDS011;20504;43.214;27.920;2024-03-02T04:54:35;27.27;;;9.37;;
34242;SDS011;20504;43.214;27.920;2024-03-02T04:57:23;29.05;;;11.00;;
34242;SDS011;20504;43.214;27.920;2024-03-02T04:59:49;17.17;;;7.47;;
34242;SDS011;20504;43.214;27.920;2024-03-02T05:02:15;32.00;;;10.43;;
34242;SDS011;20504;43.214;27.920;2024-03-02T05:04:40;25.07;;;7.77;;
34242;SDS011;20504;43.214;27.920;2024-03-02T05:07:07;24.73;;;10.30;;
34242;SDS011;20504;43.214;27.920;2024-03-02T05:09:32;27.13;;;10.00;;
34242;SDS011;20504;43.214;27.920;2024-03-02T05:11:57;33.00;;;9.87;;
34242;SDS011;20504;43.214;27.920;2024-03-02T05:14:54;30.55;;;13.73;;
34242;SDS011;20504;43.214;27.920;2024-03-02T05:17:19;30.50;;;11.43;;
34242;SDS011;20504;43.214;27.920;2024-03-02T05:19:45;23.13;;;10.32;;
34242;SDS011;20504;43.214;27.920;2024-03-02T05:22:13;30.67;;;11.05;;
34242;SDS011;20504;43.214;27.920;2024-03-02T05:24:38;27.93;;;10.67;;
34242;SDS011;20504;43.214;27.920;2024-03-02T05:27:03;32.53;;;10.87;;
34242;SDS011;20504;43.214;27.920;2024-03-02T05:29:34;30.60;;;11.10;;
34242;SDS011;20504;43.214;27.920;2024-03-02T05:32:00;31.23;;;12.13;;
34242;SDS011;20504;43.214;27.920;2024-03-02T05:34:25;29.67;;;10.67;;
34242;SDS011;20504;43.214;27.920;2024-03-02T05:36:51;26.55;;;10.27;;
34242;SDS011;20504;43.214;27.920;2024-03-02T05:39:16;24.27;;;10.17;;
34242;SDS011;20504;43.214;27.920;2024-03-02T05:41:42;32.47;;;10.97;;
34242;SDS011;20504;43.214;27.920;2024-03-02T05:44:07;26.63;;;11.10;;
34242;SDS011;20504;43.214;27.920;2024-03-02T05:46:33;25.63;;;10.80;;
34242;SDS011;20504;43.214;27.920;2024-03-02T05:48:59;25.25;;;11.02;;
34242;SDS011;20504;43.214;27.920;2024-03-02T05:51:24;29.17;;;11.37;;
34242;SDS011;20504;43.214;27.920;2024-03-02T05:53:50;25.43;;;8.63;;
34242;SDS011;20504;43.214;27.920;2024-03-02T05:56:15;23.50;;;11.03;;
34242;SDS011;20504;43.214;27.920;2024-03-02T05:58:40;25.70;;;11.00;;
34242;SDS011;20504;43.214;27.920;2024-03-02T06:01:26;24.15;;;10.50;;
34242;SDS011;20504;43.214;27.920;2024-03-02T06:03:56;26.70;;;11.80;;
34242;SDS011;20504;43.214;27.920;2024-03-02T06:06:23;30.92;;;11.90;;
34242;SDS011;20504;43.214;27.920;2024-03-02T06:08:49;29.65;;;11.02;;
34242;SDS011;20504;43.214;27.920;2024-03-02T06:11:15;29.87;;;9.47;;
34242;SDS011;20504;43.214;27.920;2024-03-02T06:13:40;21.17;;;7.70;;
34242;SDS011;20504;43.214;27.920;2024-03-02T06:16:06;28.20;;;10.30;;
34242;SDS011;20504;43.214;27.920;2024-03-02T06:18:31;25.60;;;10.30;;
34242;SDS011;20504;43.214;27.920;2024-03-02T06:20:56;21.43;;;9.77;;
34242;SDS011;20504;43.214;27.920;2024-03-02T06:23:24;31.05;;;10.52;;
34242;SDS011;20504;43.214;27.920;2024-03-02T06:25:49;23.00;;;10.57;;
34242;SDS011;20504;43.214;27.920;2024-03-02T06:28:15;34.60;;;11.17;;
34242;SDS011;20504;43.214;27.920;2024-03-02T06:30:41;26.97;;;9.03;;
34242;SDS011;20504;43.214;27.920;2024-03-02T06:33:06;27.85;;;10.25;;
34242;SDS011;20504;43.214;27.920;2024-03-02T06:35:32;27.63;;;11.13;;
34242;SDS011;20504;43.214;27.920;2024-03-02T06:38:01;25.67;;;9.40;;
34242;SDS011;20504;43.214;27.920;2024-03-02T06:40:26;27.10;;;9.90;;
34242;SDS011;20504;43.214;27.920;2024-03-02T06:42:52;27.33;;;10.63;;
34242;SDS011;20504;43.214;27.920;2024-03-02T06:45:17;25.77;;;10.00;;
34242;SDS011;20504;43.214;27.920;2024-03-02T06:47:43;26.23;;;9.30;;
34242;SDS011;20504;43.214;27.920;2024-03-02T06:50:08;28.47;;;10.17;;
34242;SDS011;20504;43.214;27.920;2024-03-02T06:52:34;24.75;;;9.63;;
34242;SDS011;20504;43.214;27.920;2024-03-02T06:54:59;29.53;;;10.23;;
34242;SDS011;20504;43.214;27.920;2024-03-02T06:57:25;24.37;;;9.83;;
34242;SDS011;20504;43.214;27.920;2024-03-02T06:59:51;30.20;;;10.25;;
34242;SDS011;20504;43.214;27.920;2024-03-02T07:02:19;23.88;;;10.25;;
34242;SDS011;20504;43.214;27.920;2024-03-02T07:04:45;27.07;;;10.60;;
34242;SDS011;20504;43.214;27.920;2024-03-02T07:07:10;27.67;;;9.43;;
34242;SDS011;20504;43.214;27.920;2024-03-02T07:09:36;25.50;;;9.47;;
34242;SDS011;20504;43.214;27.920;2024-03-02T07:12:02;24.47;;;9.20;;
34242;SDS011;20504;43.214;27.920;2024-03-02T07:14:27;27.50;;;9.70;;
34242;SDS011;20504;43.214;27.920;2024-03-02T07:17:14;28.95;;;10.00;;
34242;SDS011;20504;43.214;27.920;2024-03-02T07:19:39;25.20;;;10.07;;
34242;SDS011;20504;43.214;27.920;2024-03-02T07:22:07;30.93;;;11.60;;
34242;SDS011;20504;43.214;27.920;2024-03-02T07:24:45;20.90;;;9.27;;
34242;SDS011;20504;43.214;27.920;2024-03-02T07:27:14;28.70;;;9.02;;
34242;SDS011;20504;43.214;27.920;2024-03-02T07:29:41;36.67;;;10.73;;
34242;SDS011;20504;43.214;27.920;2024-03-02T07:34:34;24.38;;;9.93;;
34242;SDS011;20504;43.214;27.920;2024-03-02T07:37:00;26.57;;;9.97;;
34242;SDS011;20504;43.214;27.920;2024-03-02T07:39:28;21.30;;;9.75;;
34242;SDS011;20504;43.214;27.920;2024-03-02T07:41:55;23.00;;;8.52;;
34242;SDS011;20504;43.214;27.920;2024-03-02T07:44:21;27.40;;;10.60;;
34242;SDS011;20504;43.214;27.920;2024-03-02T07:46:48;19.38;;;9.23;;
34242;SDS011;20504;43.214;27.920;2024-03-02T07:49:33;26.17;;;9.75;;
34242;SDS011;20504;43.214;27.920;2024-03-02T07:51:59;20.83;;;8.45;;
34242;SDS011;20504;43.214;27.920;2024-03-02T07:54:26;22.90;;;9.60;;
34242;SDS011;20504;43.214;27.920;2024-03-02T07:59:17;22.10;;;9.50;;
34242;SDS011;20504;43.214;27.920;2024-03-02T08:01:42;23.37;;;8.63;;
34242;SDS011;20504;43.214;27.920;2024-03-02T08:04:08;24.47;;;10.07;;
34242;SDS011;20504;43.214;27.920;2024-03-02T08:06:34;27.03;;;11.30;;
34242;SDS011;20504;43.214;27.920;2024-03-02T08:09:03;25.45;;;9.85;;
34242;SDS011;20504;43.214;27.920;2024-03-02T08:11:34;22.48;;;10.80;;
34242;SDS011;20504;43.214;27.920;2024-03-02T08:14:00;22.15;;;9.32;;
34242;SDS011;20504;43.214;27.920;2024-03-02T08:16:25;20.40;;;9.03;;
34242;SDS011;20504;43.214;27.920;2024-03-02T08:18:57;22.83;;;9.45;;
34242;SDS011;20504;43.214;27.920;2024-03-02T08:23:48;24.55;;;8.55;;
34242;SDS011;20504;43.214;27.920;2024-03-02T08:26:13;26.77;;;11.53;;
34242;SDS011;20504;43.214;27.920;2024-03-02T08:28:38;25.40;;;11.53;;
34242;SDS011;20504;43.214;27.920;2024-03-02T08:31:25;23.00;;;9.98;;
34242;SDS011;20504;43.214;27.920;2024-03-02T08:33:50;23.38;;;8.32;;
34242;SDS011;20504;43.214;27.920;2024-03-02T08:36:16;23.63;;;8.87;;
34242;SDS011;20504;43.214;27.920;2024-03-02T08:38:41;27.53;;;8.80;;
34242;SDS011;20504;43.214;27.920;2024-03-02T08:41:07;22.43;;;8.63;;
34242;SDS011;20504;43.214;27.920;2024-03-02T08:43:32;22.37;;;9.13;;
34242;SDS011;20504;43.214;27.920;2024-03-02T08:45:58;23.93;;;10.70;;
34242;SDS011;20504;43.214;27.920;2024-03-02T08:48:23;20.27;;;8.83;;
34242;SDS011;20504;43.214;27.920;2024-03-02T08:50:49;19.17;;;9.13;;
34242;SDS011;20504;43.214;27.920;2024-03-02T08:53:15;26.33;;;10.38;;
34242;SDS011;20504;43.214;27.920;2024-03-02T08:55:47;19.88;;;8.48;;
34242;SDS011;20504;43.214;27.920;2024-03-02T08:58:12;18.65;;;7.78;;
34242;SDS011;20504;43.214;27.920;2024-03-02T09:00:37;19.23;;;8.33;;
34242;SDS011;20504;43.214;27.920;2024-03-02T09:03:03;23.20;;;8.27;;
34242;SDS011;20504;43.214;27.920;2024-03-02T09:05:30;20.42;;;8.23;;
34242;SDS011;20504;43.214;27.920;2024-03-02T09:10:22;19.33;;;8.63;;
34242;SDS011;20504;43.214;27.920;2024-03-02T09:12:47;21.53;;;7.73;;
34242;SDS011;20504;43.214;27.920;2024-03-02T09:15:13;16.70;;;6.83;;
34242;SDS011;20504;43.214;27.920;2024-03-02T09:17:38;20.40;;;7.60;;
34242;SDS011;20504;43.214;27.920;2024-03-02T09:20:04;20.97;;;7.53;;
34242;SDS011;20504;43.214;27.920;2024-03-02T09:22:30;20.25;;;7.22;;
34242;SDS011;20504;43.214;27.920;2024-03-02T09:24:57;17.95;;;7.13;;
34242;SDS011;20504;43.214;27.920;2024-03-02T09:27:27;20.80;;;7.63;;
34242;SDS011;20504;43.214;27.920;2024-03-02T09:29:52;18.87;;;8.17;;
34242;SDS011;20504;43.214;27.920;2024-03-02T09:32:18;17.83;;;7.53;;
34242;SDS011;20504;43.214;27.920;2024-03-02T09:34:56;20.53;;;8.43;;
34242;SDS011;20504;43.214;27.920;2024-03-02T09:37:27;16.13;;;7.13;;
34242;SDS011;20504;43.214;27.920;2024-03-02T09:39:53;26.08;;;6.03;;
34242;SDS011;20504;43.214;27.920;2024-03-02T09:42:21;16.87;;;7.43;;
34242;SDS011;20504;43.214;27.920;2024-03-02T09:44:55;24.60;;;8.38;;
34242;SDS011;20504;43.214;27.920;2024-03-02T09:47:25;20.48;;;7.55;;
34242;SDS011;20504;43.214;27.920;2024-03-02T09:49:53;18.73;;;8.18;;
34242;SDS011;20504;43.214;27.920;2024-03-02T09:52:22;17.80;;;7.63;;
34242;SDS011;20504;43.214;27.920;2024-03-02T09:54:48;18.43;;;7.70;;
34242;SDS011;20504;43.214;27.920;2024-03-02T09:57:14;20.70;;;9.53;;
34242;SDS011;20504;43.214;27.920;2024-03-02T09:59:40;21.52;;;7.90;;
34242;SDS011;20504;43.214;27.920;2024-03-02T10:02:06;19.80;;;7.37;;
34242;SDS011;20504;43.214;27.920;2024-03-02T10:04:32;18.27;;;8.00;;
34242;SDS011;20504;43.214;27.920;2024-03-02T10:07:16;18.70;;;7.60;;
34242;SDS011;20504;43.214;27.920;2024-03-02T10:09:43;19.83;;;7.80;;
34242;SDS011;20504;43.214;27.920;2024-03-02T10:14:34;19.43;;;7.23;;
34242;SDS011;20504;43.214;27.920;2024-03-02T10:17:03;21.53;;;7.53;;
34242;SDS011;20504;43.214;27.920;2024-03-02T10:19:29;17.60;;;6.72;;
34242;SDS011;20504;43.214;27.920;2024-03-02T10:21:58;18.35;;;6.88;;
34242;SDS011;20504;43.214;27.920;2024-03-02T10:24:23;27.13;;;10.03;;
34242;SDS011;20504;43.214;27.920;2024-03-02T10:26:50;24.35;;;8.60;;
34242;SDS011;20504;43.214;27.920;2024-03-02T10:29:15;23.03;;;9.37;;
34242;SDS011;20504;43.214;27.920;2024-03-02T10:31:41;22.47;;;8.17;;
34242;SDS011;20504;43.214;27.920;2024-03-02T10:34:09;19.50;;;6.72;;
34242;SDS011;20504;43.214;27.920;2024-03-02T10:36:40;21.75;;;7.47;;
34242;SDS011;20504;43.214;27.920;2024-03-02T10:39:06;21.45;;;7.72;;
34242;SDS011;20504;43.214;27.920;2024-03-02T10:41:33;21.13;;;8.50;;
34242;SDS011;20504;43.214;27.920;2024-03-02T10:43:59;21.88;;;8.57;;
34242;SDS011;20504;43.214;27.920;2024-03-02T10:46:37;23.50;;;8.17;;
34242;SDS011;20504;43.214;27.920;2024-03-02T10:49:03;22.17;;;8.30;;
34242;SDS011;20504;43.214;27.920;2024-03-02T10:51:30;19.38;;;7.60;;
34242;SDS011;20504;43.214;27.920;2024-03-02T10:53:58;16.88;;;7.78;;
34242;SDS011;20504;43.214;27.920;2024-03-02T11:01:38;21.55;;;8.45;;
34242;SDS011;20504;43.214;27.920;2024-03-02T11:04:04;21.00;;;8.32;;
34242;SDS011;20504;43.214;27.920;2024-03-02T11:06:33;17.08;;;7.80;;
34242;SDS011;20504;43.214;27.920;2024-03-02T11:09:07;17.55;;;8.27;;
34242;SDS011;20504;43.214;27.920;2024-03-02T11:11:42;21.55;;;8.77;;
34242;SDS011;20504;43.214;27.920;2024-03-02T11:14:11;19.63;;;8.73;;
34242;SDS011;20504;43.214;27.920;2024-03-02T11:16:38;21.98;;;8.45;;
34242;SDS011;20504;43.214;27.920;2024-03-02T11:19:10;22.40;;;10.18;;
34242;SDS011;20504;43.214;27.920;2024-03-02T11:21:37;24.58;;;10.48;;
34242;SDS011;20504;43.214;27.920;2024-03-02T11:26:47;22.83;;;9.63;;
34242;SDS011;20504;43.214;27.920;2024-03-02T11:31:57;31.08;;;13.40;;
34242;SDS011;20504;43.214;27.920;2024-03-02T11:34:32;24.30;;;9.85;;
34242;SDS011;20504;43.214;27.920;2024-03-02T11:36:59;21.52;;;8.60;;
34242;SDS011;20504;43.214;27.920;2024-03-02T11:39:25;22.40;;;8.53;;
34242;SDS011;20504;43.214;27.920;2024-03-02T11:41:50;14.30;;;7.10;;
34242;SDS011;20504;43.214;27.920;2024-03-02T11:44:16;33.30;;;8.33;;
34242;SDS011;20504;43.214;27.920;2024-03-02T11:46:45;27.60;;;10.00;;
34242;SDS011;20504;43.214;27.920;2024-03-02T11:49:14;30.35;;;8.07;;
34242;SDS011;20504;43.214;27.920;2024-03-02T11:51:40;16.63;;;7.33;;
34242;SDS011;20504;43.214;27.920;2024-03-02T11:54:15;19.73;;;8.27;;
34242;SDS011;20504;43.214;27.920;2024-03-02T11:56:42;22.57;;;7.23;;
34242;SDS011;20504;43.214;27.920;2024-03-02T11:59:07;18.35;;;7.20;;
34242;SDS011;20504;43.214;27.920;2024-03-02T12:01:34;18.73;;;7.53;;
34242;SDS011;20504;43.214;27.920;2024-03-02T12:04:02;22.70;;;7.45;;
34242;SDS011;20504;43.214;27.920;2024-03-02T12:06:30;19.77;;;7.82;;
34242;SDS011;20504;43.214;27.920;2024-03-02T12:08:59;18.60;;;7.20;;
34242;SDS011;20504;43.214;27.920;2024-03-02T12:11:26;24.77;;;10.17;;
34242;SDS011;20504;43.214;27.920;2024-03-02T12:13:52;18.70;;;8.10;;
34242;SDS011;20504;43.214;27.920;2024-03-02T12:16:24;21.45;;;8.32;;
34242;SDS011;20504;43.214;27.920;2024-03-02T12:18:50;25.45;;;8.18;;
34242;SDS011;20504;43.214;27.920;2024-03-02T12:21:29;20.58;;;7.53;;
34242;SDS011;20504;43.214;27.920;2024-03-02T12:23:54;26.40;;;9.23;;
34242;SDS011;20504;43.214;27.920;2024-03-02T12:26:19;18.67;;;7.80;;
34242;SDS011;20504;43.214;27.920;2024-03-02T12:28:45;23.17;;;8.30;;
34242;SDS011;20504;43.214;27.920;2024-03-02T12:31:10;20.00;;;7.73;;
34242;SDS011;20504;43.214;27.920;2024-03-02T12:33:38;21.27;;;7.82;;
34242;SDS011;20504;43.214;27.920;2024-03-02T12:36:05;24.77;;;7.55;;
34242;SDS011;20504;43.214;27.920;2024-03-02T12:38:31;20.00;;;6.70;;
34242;SDS011;20504;43.214;27.920;2024-03-02T12:40:58;16.98;;;7.70;;
34242;SDS011;20504;43.214;27.920;2024-03-02T12:43:23;16.37;;;7.30;;
34242;SDS011;20504;43.214;27.920;2024-03-02T12:45:50;18.03;;;7.57;;
34242;SDS011;20504;43.214;27.920;2024-03-02T12:48:21;20.88;;;8.23;;
34242;SDS011;20504;43.214;27.920;2024-03-02T12:50:48;21.83;;;7.88;;
34242;SDS011;20504;43.214;27.920;2024-03-02T12:53:15;18.88;;;8.73;;
34242;SDS011;20504;43.214;27.920;2024-03-02T12:55:41;16.88;;;6.95;;
34242;SDS011;20504;43.214;27.920;2024-03-02T12:58:07;19.53;;;7.23;;
34242;SDS011;20504;43.214;27.920;2024-03-02T13:00:32;22.43;;;7.50;;
34242;SDS011;20504;43.214;27.920;2024-03-02T13:03:01;23.63;;;7.35;;
34242;SDS011;20504;43.214;27.920;2024-03-02T13:05:30;19.17;;;8.15;;
34242;SDS011;20504;43.214;27.920;2024-03-02T13:07:58;20.80;;;7.90;;
34242;SDS011;20504;43.214;27.920;2024-03-02T13:10:24;22.35;;;8.43;;
34242;SDS011;20504;43.214;27.920;2024-03-02T13:12:50;24.92;;;9.70;;
34242;SDS011;20504;43.214;27.920;2024-03-02T13:15:19;24.38;;;9.23;;
34242;SDS011;20504;43.214;27.920;2024-03-02T13:17:44;19.70;;;8.37;;
34242;SDS011;20504;43.214;27.920;2024-03-02T13:20:10;25.40;;;10.13;;
34242;SDS011;20504;43.214;27.920;2024-03-02T13:22:36;20.50;;;8.77;;
34242;SDS011;20504;43.214;27.920;2024-03-02T13:30:00;19.52;;;9.73;;
34242;SDS011;20504;43.214;27.920;2024-03-02T13:32:27;20.27;;;9.80;;
34242;SDS011;20504;43.214;27.920;2024-03-02T13:34:53;19.83;;;9.85;;
34242;SDS011;20504;43.214;27.920;2024-03-02T13:37:20;15.90;;;9.80;;
34242;SDS011;20504;43.214;27.920;2024-03-02T13:39:45;19.95;;;9.90;;
34242;SDS011;20504;43.214;27.920;2024-03-02T13:42:11;22.67;;;9.77;;
34242;SDS011;20504;43.214;27.920;2024-03-02T13:44:44;19.20;;;9.23;;
34242;SDS011;20504;43.214;27.920;2024-03-02T13:47:12;23.23;;;9.73;;
34242;SDS011;20504;43.214;27.920;2024-03-02T13:49:38;19.13;;;9.63;;
34242;SDS011;20504;43.214;27.920;2024-03-02T13:52:06;22.42;;;9.40;;
34242;SDS011;20504;43.214;27.920;2024-03-02T13:59:41;21.10;;;9.43;;
34242;SDS011;20504;43.214;27.920;2024-03-02T14:02:06;23.65;;;9.43;;
34242;SDS011;20504;43.214;27.920;2024-03-02T14:04:35;17.17;;;8.47;;
34242;SDS011;20504;43.214;27.920;2024-03-02T14:07:01;20.60;;;9.18;;
34242;SDS011;20504;43.214;27.920;2024-03-02T14:09:27;18.17;;;8.18;;
34242;SDS011;20504;43.214;27.920;2024-03-02T14:11:52;24.83;;;9.00;;
34242;SDS011;20504;43.214;27.920;2024-03-02T14:14:18;22.60;;;8.43;;
34242;SDS011;20504;43.214;27.920;2024-03-02T14:16:43;17.37;;;9.17;;
34242;SDS011;20504;43.214;27.920;2024-03-02T14:19:10;28.23;;;9.75;;
34242;SDS011;20504;43.214;27.920;2024-03-02T14:21:35;20.60;;;9.37;;
34242;SDS011;20504;43.214;27.920;2024-03-02T14:24:01;24.07;;;9.97;;
34242;SDS011;20504;43.214;27.920;2024-03-02T14:26:33;24.33;;;9.60;;
34242;SDS011;20504;43.214;27.920;2024-03-02T14:29:01;20.33;;;9.80;;
34242;SDS011;20504;43.214;27.920;2024-03-02T14:31:32;17.92;;;8.98;;
34242;SDS011;20504;43.214;27.920;2024-03-02T14:33:58;21.10;;;10.17;;
34242;SDS011;20504;43.214;27.920;2024-03-02T14:36:23;26.00;;;12.37;;
34242;SDS011;20504;43.214;27.920;2024-03-02T14:38:49;24.57;;;11.03;;
34242;SDS011;20504;43.214;27.920;2024-03-02T14:41:16;23.33;;;11.25;;
34242;SDS011;20504;43.214;27.920;2024-03-02T14:43:41;23.67;;;10.23;;
34242;SDS011;20504;43.214;27.920;2024-03-02T14:46:07;27.23;;;11.13;;
34242;SDS011;20504;43.214;27.920;2024-03-02T14:48:35;22.55;;;11.15;;
34242;SDS011;20504;43.214;27.920;2024-03-02T14:51:01;24.10;;;10.55;;
34242;SDS011;20504;43.214;27.920;2024-03-02T14:53:27;24.50;;;11.20;;
34242;SDS011;20504;43.214;27.920;2024-03-02T14:55:53;22.53;;;10.13;;
34242;SDS011;20504;43.214;27.920;2024-03-02T14:58:18;25.23;;;10.60;;
34242;SDS011;20504;43.214;27.920;2024-03-02T15:00:44;20.27;;;10.80;;